sensor_id;sensor_type;location;lat;lon;timestamp;temperature;humidity
17172;DHT22;8701;50.150;8.756;2023-06-14T00:02:44;20.40;83.20
17172;DHT22;8701;50.150;8.756;2023-06-14T00:06:46;20.40;82.10
17172;DHT22;8701;50.150;8.756;2023-06-14T00:10:49;20.40;83.70
17172;DHT22;8701;50.150;8.756;2023-06-14T00:14:51;20.30;84.00
17172;DHT22;8701;50.150;8.756;2023-06-14T00:18:55;20.30;84.50
17172;DHT22;8701;50.150;8.756;2023-06-14T00:22:57;20.20;82.00
17172;DHT22;8701;50.150;8.756;2023-06-14T00:26:59;20.20;84.30
17172;DHT22;8701;50.150;8.756;2023-06-14T00:31:03;20.20;83.90
17172;DHT22;8701;50.150;8.756;2023-06-14T00:35:07;20.10;83.10
17172;DHT22;8701;50.150;8.756;2023-06-14T00:39:11;20.10;84.30
17172;DHT22;8701;50.150;8.756;2023-06-14T00:43:13;20.00;83.40
17172;DHT22;8701;50.150;8.756;2023-06-14T00:47:18;19.90;83.40
17172;DHT22;8701;50.150;8.756;2023-06-14T00:51:22;19.90;83.10
17172;DHT22;8701;50.150;8.756;2023-06-14T00:55:25;19.90;83.50
17172;DHT22;8701;50.150;8.756;2023-06-14T00:59:27;19.80;83.60
17172;DHT22;8701;50.150;8.756;2023-06-14T01:03:29;19.80;85.40
17172;DHT22;8701;50.150;8.756;2023-06-14T01:07:43;19.80;83.40
17172;DHT22;8701;50.150;8.756;2023-06-14T01:11:53;19.70;84.40
17172;DHT22;8701;50.150;8.756;2023-06-14T01:16:00;19.70;83.80
17172;DHT22;8701;50.150;8.756;2023-06-14T01:20:06;19.60;84.70
17172;DHT22;8701;50.150;8.756;2023-06-14T01:24:12;19.60;83.50
17172;DHT22;8701;50.150;8.756;2023-06-14T01:28:15;19.60;83.70
17172;DHT22;8701;50.150;8.756;2023-06-14T01:32:18;19.60;84.40
17172;DHT22;8701;50.150;8.756;2023-06-14T01:36:21;19.50;84.30
17172;DHT22;8701;50.150;8.756;2023-06-14T01:40:26;19.50;84.20
17172;DHT22;8701;50.150;8.756;2023-06-14T01:44:29;19.50;83.80
17172;DHT22;8701;50.150;8.756;2023-06-14T01:48:36;19.40;84.40
17172;DHT22;8701;50.150;8.756;2023-06-14T01:52:38;19.40;85.00
17172;DHT22;8701;50.150;8.756;2023-06-14T01:56:42;19.30;85.30
17172;DHT22;8701;50.150;8.756;2023-06-14T02:00:45;19.30;86.40
17172;DHT22;8701;50.150;8.756;2023-06-14T02:04:48;19.20;86.10
17172;DHT22;8701;50.150;8.756;2023-06-14T02:08:50;19.20;85.90
17172;DHT22;8701;50.150;8.756;2023-06-14T02:12:54;19.20;85.80
17172;DHT22;8701;50.150;8.756;2023-06-14T02:16:56;19.10;85.50
17172;DHT22;8701;50.150;8.756;2023-06-14T02:20:59;19.10;86.00
17172;DHT22;8701;50.150;8.756;2023-06-14T02:25:01;19.10;86.50
17172;DHT22;8701;50.150;8.756;2023-06-14T02:29:05;19.10;87.20
17172;DHT22;8701;50.150;8.756;2023-06-14T02:33:11;18.90;86.20
17172;DHT22;8701;50.150;8.756;2023-06-14T02:37:15;18.90;86.80
17172;DHT22;8701;50.150;8.756;2023-06-14T02:41:17;18.90;86.50
17172;DHT22;8701;50.150;8.756;2023-06-14T02:45:21;18.90;87.30
17172;DHT22;8701;50.150;8.756;2023-06-14T02:49:23;18.80;87.10
17172;DHT22;8701;50.150;8.756;2023-06-14T02:53:26;18.80;87.00
17172;DHT22;8701;50.150;8.756;2023-06-14T02:57:28;18.60;86.80
17172;DHT22;8701;50.150;8.756;2023-06-14T03:01:32;18.60;86.70
17172;DHT22;8701;50.150;8.756;2023-06-14T03:05:40;18.60;87.30
17172;DHT22;8701;50.150;8.756;2023-06-14T03:09:48;18.60;87.40
17172;DHT22;8701;50.150;8.756;2023-06-14T03:13:51;18.50;87.30
17172;DHT22;8701;50.150;8.756;2023-06-14T03:17:55;18.40;87.20
17172;DHT22;8701;50.150;8.756;2023-06-14T03:21:57;18.30;86.60
17172;DHT22;8701;50.150;8.756;2023-06-14T03:26:01;18.30;87.60
17172;DHT22;8701;50.150;8.756;2023-06-14T03:30:05;18.20;88.30
17172;DHT22;8701;50.150;8.756;2023-06-14T03:34:09;18.20;88.90
17172;DHT22;8701;50.150;8.756;2023-06-14T03:38:11;18.10;88.10
17172;DHT22;8701;50.150;8.756;2023-06-14T03:42:14;18.10;89.50
17172;DHT22;8701;50.150;8.756;2023-06-14T03:46:18;18.10;89.20
17172;DHT22;8701;50.150;8.756;2023-06-14T03:50:22;18.10;89.00
17172;DHT22;8701;50.150;8.756;2023-06-14T03:54:25;18.00;89.30
17172;DHT22;8701;50.150;8.756;2023-06-14T03:58:29;17.90;90.00
17172;DHT22;8701;50.150;8.756;2023-06-14T04:02:31;17.90;90.10
17172;DHT22;8701;50.150;8.756;2023-06-14T04:06:35;17.90;90.00
17172;DHT22;8701;50.150;8.756;2023-06-14T04:10:39;17.90;90.30
17172;DHT22;8701;50.150;8.756;2023-06-14T04:14:42;17.80;90.40
17172;DHT22;8701;50.150;8.756;2023-06-14T04:18:46;17.80;90.70
17172;DHT22;8701;50.150;8.756;2023-06-14T04:22:51;17.80;90.60
17172;DHT22;8701;50.150;8.756;2023-06-14T04:26:54;17.70;91.00
17172;DHT22;8701;50.150;8.756;2023-06-14T04:31:00;17.70;90.70
17172;DHT22;8701;50.150;8.756;2023-06-14T04:35:06;17.70;91.30
17172;DHT22;8701;50.150;8.756;2023-06-14T04:39:12;17.80;91.00
17172;DHT22;8701;50.150;8.756;2023-06-14T04:43:14;17.70;91.10
17172;DHT22;8701;50.150;8.756;2023-06-14T04:47:19;17.70;90.90
17172;DHT22;8701;50.150;8.756;2023-06-14T04:51:22;17.70;91.40
17172;DHT22;8701;50.150;8.756;2023-06-14T04:55:32;17.80;91.60
17172;DHT22;8701;50.150;8.756;2023-06-14T04:59:36;17.80;92.20
17172;DHT22;8701;50.150;8.756;2023-06-14T05:03:38;17.80;91.90
17172;DHT22;8701;50.150;8.756;2023-06-14T05:07:40;17.90;92.10
17172;DHT22;8701;50.150;8.756;2023-06-14T05:11:44;17.90;91.90
17172;DHT22;8701;50.150;8.756;2023-06-14T05:15:47;18.00;92.50
17172;DHT22;8701;50.150;8.756;2023-06-14T05:19:49;18.00;92.00
17172;DHT22;8701;50.150;8.756;2023-06-14T05:23:52;18.00;92.20
17172;DHT22;8701;50.150;8.756;2023-06-14T05:27:56;18.10;92.40
17172;DHT22;8701;50.150;8.756;2023-06-14T05:31:58;18.10;92.50
17172;DHT22;8701;50.150;8.756;2023-06-14T05:36:00;18.20;92.50
17172;DHT22;8701;50.150;8.756;2023-06-14T05:40:04;18.30;92.60
17172;DHT22;8701;50.150;8.756;2023-06-14T05:44:09;18.20;92.80
17172;DHT22;8701;50.150;8.756;2023-06-14T05:48:11;18.50;92.60
17172;DHT22;8701;50.150;8.756;2023-06-14T05:52:13;18.50;92.80
17172;DHT22;8701;50.150;8.756;2023-06-14T05:56:15;18.60;93.00
17172;DHT22;8701;50.150;8.756;2023-06-14T06:00:20;18.70;92.80
17172;DHT22;8701;50.150;8.756;2023-06-14T06:04:23;18.80;92.80
17172;DHT22;8701;50.150;8.756;2023-06-14T06:08:25;18.90;92.90
17172;DHT22;8701;50.150;8.756;2023-06-14T06:12:28;19.00;93.30
17172;DHT22;8701;50.150;8.756;2023-06-14T06:16:31;19.10;92.80
17172;DHT22;8701;50.150;8.756;2023-06-14T06:20:34;19.20;92.80
17172;DHT22;8701;50.150;8.756;2023-06-14T06:24:37;19.30;91.80
17172;DHT22;8701;50.150;8.756;2023-06-14T06:28:39;19.40;93.20
17172;DHT22;8701;50.150;8.756;2023-06-14T06:32:43;19.50;92.80
17172;DHT22;8701;50.150;8.756;2023-06-14T06:36:45;19.60;92.60
17172;DHT22;8701;50.150;8.756;2023-06-14T06:40:48;19.70;91.80
17172;DHT22;8701;50.150;8.756;2023-06-14T06:44:50;19.80;91.60
17172;DHT22;8701;50.150;8.756;2023-06-14T06:48:54;19.80;91.90
17172;DHT22;8701;50.150;8.756;2023-06-14T06:52:56;20.00;91.90
17172;DHT22;8701;50.150;8.756;2023-06-14T06:56:59;20.10;91.80
17172;DHT22;8701;50.150;8.756;2023-06-14T07:01:01;20.30;91.10
17172;DHT22;8701;50.150;8.756;2023-06-14T07:05:05;20.40;91.00
17172;DHT22;8701;50.150;8.756;2023-06-14T07:09:08;20.50;91.40
17172;DHT22;8701;50.150;8.756;2023-06-14T07:13:13;20.60;90.30
17172;DHT22;8701;50.150;8.756;2023-06-14T07:17:15;20.70;90.50
17172;DHT22;8701;50.150;8.756;2023-06-14T07:21:19;20.80;90.70
17172;DHT22;8701;50.150;8.756;2023-06-14T07:25:21;20.90;90.50
17172;DHT22;8701;50.150;8.756;2023-06-14T07:29:24;21.10;90.20
17172;DHT22;8701;50.150;8.756;2023-06-14T07:33:32;21.20;90.20
17172;DHT22;8701;50.150;8.756;2023-06-14T07:37:36;21.40;89.80
17172;DHT22;8701;50.150;8.756;2023-06-14T07:41:38;21.60;89.40
17172;DHT22;8701;50.150;8.756;2023-06-14T07:45:40;22.10;89.50
17172;DHT22;8701;50.150;8.756;2023-06-14T07:49:43;22.80;86.90
17172;DHT22;8701;50.150;8.756;2023-06-14T07:53:46;23.50;86.90
17172;DHT22;8701;50.150;8.756;2023-06-14T07:57:48;24.20;85.70
17172;DHT22;8701;50.150;8.756;2023-06-14T08:01:50;24.80;83.80
17172;DHT22;8701;50.150;8.756;2023-06-14T08:05:53;25.60;81.40
17172;DHT22;8701;50.150;8.756;2023-06-14T08:09:56;26.20;82.50
17172;DHT22;8701;50.150;8.756;2023-06-14T08:13:58;26.60;81.00
17172;DHT22;8701;50.150;8.756;2023-06-14T08:18:01;27.10;78.70
17172;DHT22;8701;50.150;8.756;2023-06-14T08:22:03;27.50;78.60
17172;DHT22;8701;50.150;8.756;2023-06-14T08:26:07;27.50;78.60
17172;DHT22;8701;50.150;8.756;2023-06-14T08:30:10;27.90;78.60
17172;DHT22;8701;50.150;8.756;2023-06-14T08:34:13;28.40;77.10
17172;DHT22;8701;50.150;8.756;2023-06-14T08:38:15;28.70;78.00
17172;DHT22;8701;50.150;8.756;2023-06-14T08:42:19;29.30;79.20
17172;DHT22;8701;50.150;8.756;2023-06-14T08:46:25;29.50;75.30
17172;DHT22;8701;50.150;8.756;2023-06-14T08:50:28;29.50;74.30
17172;DHT22;8701;50.150;8.756;2023-06-14T08:54:32;29.50;74.80
17172;DHT22;8701;50.150;8.756;2023-06-14T08:58:46;29.80;75.60
17172;DHT22;8701;50.150;8.756;2023-06-14T09:02:49;30.10;74.20
17172;DHT22;8701;50.150;8.756;2023-06-14T09:06:56;30.40;73.60
17172;DHT22;8701;50.150;8.756;2023-06-14T09:11:01;30.30;72.40
17172;DHT22;8701;50.150;8.756;2023-06-14T09:15:06;29.20;74.40
17172;DHT22;8701;50.150;8.756;2023-06-14T09:19:13;29.30;74.70
17172;DHT22;8701;50.150;8.756;2023-06-14T09:23:20;29.90;71.90
17172;DHT22;8701;50.150;8.756;2023-06-14T09:27:25;30.20;75.60
17172;DHT22;8701;50.150;8.756;2023-06-14T09:31:29;30.80;73.20
17172;DHT22;8701;50.150;8.756;2023-06-14T09:35:32;31.00;72.50
17172;DHT22;8701;50.150;8.756;2023-06-14T09:39:34;31.30;72.10
17172;DHT22;8701;50.150;8.756;2023-06-14T09:43:37;31.70;73.20
17172;DHT22;8701;50.150;8.756;2023-06-14T09:47:41;32.10;70.40
17172;DHT22;8701;50.150;8.756;2023-06-14T09:51:45;31.40;70.40
17172;DHT22;8701;50.150;8.756;2023-06-14T09:55:49;31.20;71.30
17172;DHT22;8701;50.150;8.756;2023-06-14T09:59:57;31.40;69.40
17172;DHT22;8701;50.150;8.756;2023-06-14T10:04:03;31.60;72.20
17172;DHT22;8701;50.150;8.756;2023-06-14T10:08:08;32.00;66.10
17172;DHT22;8701;50.150;8.756;2023-06-14T10:12:12;32.20;69.00
17172;DHT22;8701;50.150;8.756;2023-06-14T10:16:23;32.50;69.50
17172;DHT22;8701;50.150;8.756;2023-06-14T10:20:32;32.00;69.90
17172;DHT22;8701;50.150;8.756;2023-06-14T10:24:40;32.10;68.50
17172;DHT22;8701;50.150;8.756;2023-06-14T10:28:55;32.50;70.00
17172;DHT22;8701;50.150;8.756;2023-06-14T10:33:04;32.40;70.70
17172;DHT22;8701;50.150;8.756;2023-06-14T10:37:12;32.20;71.40
17172;DHT22;8701;50.150;8.756;2023-06-14T10:41:16;31.50;69.20
17172;DHT22;8701;50.150;8.756;2023-06-14T10:45:19;30.80;72.10
17172;DHT22;8701;50.150;8.756;2023-06-14T10:49:37;30.80;71.50
17172;DHT22;8701;50.150;8.756;2023-06-14T10:53:42;31.30;67.70
17172;DHT22;8701;50.150;8.756;2023-06-14T10:57:46;31.30;70.60
17172;DHT22;8701;50.150;8.756;2023-06-14T11:01:58;31.10;67.50
17172;DHT22;8701;50.150;8.756;2023-06-14T11:06:15;31.20;71.20
17172;DHT22;8701;50.150;8.756;2023-06-14T11:10:29;31.40;70.30
17172;DHT22;8701;50.150;8.756;2023-06-14T11:14:33;31.20;69.20
17172;DHT22;8701;50.150;8.756;2023-06-14T11:18:36;30.90;66.70
17172;DHT22;8701;50.150;8.756;2023-06-14T11:22:39;30.40;66.90
17172;DHT22;8701;50.150;8.756;2023-06-14T11:26:43;30.00;71.40
17172;DHT22;8701;50.150;8.756;2023-06-14T11:30:46;29.80;70.90
17172;DHT22;8701;50.150;8.756;2023-06-14T11:34:48;29.70;74.60
17172;DHT22;8701;50.150;8.756;2023-06-14T11:38:58;29.50;73.40
17172;DHT22;8701;50.150;8.756;2023-06-14T11:43:02;29.40;69.50
17172;DHT22;8701;50.150;8.756;2023-06-14T11:47:05;29.30;66.20
17172;DHT22;8701;50.150;8.756;2023-06-14T11:51:08;29.60;70.30
17172;DHT22;8701;50.150;8.756;2023-06-14T11:55:10;29.60;72.90
17172;DHT22;8701;50.150;8.756;2023-06-14T11:59:14;29.20;71.90
17172;DHT22;8701;50.150;8.756;2023-06-14T12:03:17;29.00;72.20
17172;DHT22;8701;50.150;8.756;2023-06-14T12:07:19;28.70;74.30
17172;DHT22;8701;50.150;8.756;2023-06-14T12:11:24;28.90;76.20
17172;DHT22;8701;50.150;8.756;2023-06-14T12:15:31;29.40;75.70
17172;DHT22;8701;50.150;8.756;2023-06-14T12:19:41;29.60;73.70
17172;DHT22;8701;50.150;8.756;2023-06-14T12:23:45;29.70;72.90
17172;DHT22;8701;50.150;8.756;2023-06-14T12:27:48;29.70;72.30
17172;DHT22;8701;50.150;8.756;2023-06-14T12:31:51;29.50;69.90
17172;DHT22;8701;50.150;8.756;2023-06-14T12:35:55;29.20;73.90
17172;DHT22;8701;50.150;8.756;2023-06-14T12:39:58;29.10;72.90
17172;DHT22;8701;50.150;8.756;2023-06-14T12:44:00;28.70;74.80
17172;DHT22;8701;50.150;8.756;2023-06-14T12:48:06;28.40;73.90
17172;DHT22;8701;50.150;8.756;2023-06-14T12:52:10;28.20;73.70
17172;DHT22;8701;50.150;8.756;2023-06-14T12:56:12;28.30;78.90
17172;DHT22;8701;50.150;8.756;2023-06-14T13:00:16;28.20;72.30
17172;DHT22;8701;50.150;8.756;2023-06-14T13:04:20;28.20;69.20
17172;DHT22;8701;50.150;8.756;2023-06-14T13:08:22;28.20;72.00
17172;DHT22;8701;50.150;8.756;2023-06-14T13:12:24;28.20;70.60
17172;DHT22;8701;50.150;8.756;2023-06-14T13:16:26;28.30;73.40
17172;DHT22;8701;50.150;8.756;2023-06-14T13:20:30;28.40;68.30
17172;DHT22;8701;50.150;8.756;2023-06-14T13:24:32;28.70;77.70
17172;DHT22;8701;50.150;8.756;2023-06-14T13:28:35;29.00;71.70
17172;DHT22;8701;50.150;8.756;2023-06-14T13:32:37;29.00;73.90
17172;DHT22;8701;50.150;8.756;2023-06-14T13:36:40;29.10;71.60
17172;DHT22;8701;50.150;8.756;2023-06-14T13:40:43;29.00;73.40
17172;DHT22;8701;50.150;8.756;2023-06-14T13:44:45;28.70;74.80
17172;DHT22;8701;50.150;8.756;2023-06-14T13:48:47;28.50;72.30
17172;DHT22;8701;50.150;8.756;2023-06-14T13:52:50;28.50;75.10
17172;DHT22;8701;50.150;8.756;2023-06-14T13:56:53;28.60;74.40
17172;DHT22;8701;50.150;8.756;2023-06-14T14:00:55;28.70;74.30
17172;DHT22;8701;50.150;8.756;2023-06-14T14:04:57;28.90;76.70
17172;DHT22;8701;50.150;8.756;2023-06-14T14:09:01;28.90;74.20
17172;DHT22;8701;50.150;8.756;2023-06-14T14:13:03;28.80;71.20
17172;DHT22;8701;50.150;8.756;2023-06-14T14:17:06;28.50;72.70
17172;DHT22;8701;50.150;8.756;2023-06-14T14:21:08;28.20;75.20
17172;DHT22;8701;50.150;8.756;2023-06-14T14:25:11;28.00;72.20
17172;DHT22;8701;50.150;8.756;2023-06-14T14:29:14;27.90;76.90
17172;DHT22;8701;50.150;8.756;2023-06-14T14:33:16;27.70;71.50
17172;DHT22;8701;50.150;8.756;2023-06-14T14:37:19;27.80;77.00
17172;DHT22;8701;50.150;8.756;2023-06-14T14:41:22;27.80;73.90
17172;DHT22;8701;50.150;8.756;2023-06-14T14:45:24;28.00;74.70
17172;DHT22;8701;50.150;8.756;2023-06-14T14:49:26;28.20;72.20
17172;DHT22;8701;50.150;8.756;2023-06-14T14:53:29;28.30;75.30
17172;DHT22;8701;50.150;8.756;2023-06-14T14:57:32;28.30;74.20
17172;DHT22;8701;50.150;8.756;2023-06-14T15:01:35;28.00;73.00
17172;DHT22;8701;50.150;8.756;2023-06-14T15:05:37;27.90;73.00
17172;DHT22;8701;50.150;8.756;2023-06-14T15:09:39;27.70;74.20
17172;DHT22;8701;50.150;8.756;2023-06-14T15:13:43;27.40;73.80
17172;DHT22;8701;50.150;8.756;2023-06-14T15:17:45;27.30;71.50
17172;DHT22;8701;50.150;8.756;2023-06-14T15:21:47;27.30;74.80
17172;DHT22;8701;50.150;8.756;2023-06-14T15:25:49;27.20;74.70
17172;DHT22;8701;50.150;8.756;2023-06-14T15:29:54;27.00;75.30
17172;DHT22;8701;50.150;8.756;2023-06-14T15:33:56;26.90;76.10
17172;DHT22;8701;50.150;8.756;2023-06-14T15:37:58;26.90;75.80
17172;DHT22;8701;50.150;8.756;2023-06-14T15:42:00;26.90;74.90
17172;DHT22;8701;50.150;8.756;2023-06-14T15:46:04;26.90;72.90
17172;DHT22;8701;50.150;8.756;2023-06-14T15:50:06;26.90;76.30
17172;DHT22;8701;50.150;8.756;2023-06-14T15:54:09;26.70;75.80
17172;DHT22;8701;50.150;8.756;2023-06-14T15:58:11;26.60;77.80
17172;DHT22;8701;50.150;8.756;2023-06-14T16:02:15;26.40;74.80
17172;DHT22;8701;50.150;8.756;2023-06-14T16:06:17;26.30;78.60
17172;DHT22;8701;50.150;8.756;2023-06-14T16:10:19;26.30;76.50
17172;DHT22;8701;50.150;8.756;2023-06-14T16:14:22;26.20;76.40
17172;DHT22;8701;50.150;8.756;2023-06-14T16:18:25;26.20;77.50
17172;DHT22;8701;50.150;8.756;2023-06-14T16:22:27;26.20;75.10
17172;DHT22;8701;50.150;8.756;2023-06-14T16:26:30;26.20;73.80
17172;DHT22;8701;50.150;8.756;2023-06-14T16:30:32;26.20;76.00
17172;DHT22;8701;50.150;8.756;2023-06-14T16:34:35;26.10;75.60
17172;DHT22;8701;50.150;8.756;2023-06-14T16:38:38;26.00;77.40
17172;DHT22;8701;50.150;8.756;2023-06-14T16:42:41;25.90;76.30
17172;DHT22;8701;50.150;8.756;2023-06-14T16:46:43;25.70;75.60
17172;DHT22;8701;50.150;8.756;2023-06-14T16:50:47;25.60;78.50
17172;DHT22;8701;50.150;8.756;2023-06-14T16:54:49;25.50;77.60
17172;DHT22;8701;50.150;8.756;2023-06-14T16:58:52;25.40;77.40
17172;DHT22;8701;50.150;8.756;2023-06-14T17:02:55;25.40;77.70
17172;DHT22;8701;50.150;8.756;2023-06-14T17:06:58;25.40;76.30
17172;DHT22;8701;50.150;8.756;2023-06-14T17:11:01;25.30;77.80
17172;DHT22;8701;50.150;8.756;2023-06-14T17:15:04;25.40;77.00
17172;DHT22;8701;50.150;8.756;2023-06-14T17:19:07;25.40;77.00
17172;DHT22;8701;50.150;8.756;2023-06-14T17:23:10;25.30;76.40
17172;DHT22;8701;50.150;8.756;2023-06-14T17:27:13;25.20;76.60
17172;DHT22;8701;50.150;8.756;2023-06-14T17:31:16;25.10;77.00
17172;DHT22;8701;50.150;8.756;2023-06-14T17:35:18;25.10;77.00
17172;DHT22;8701;50.150;8.756;2023-06-14T17:39:22;25.00;76.80
17172;DHT22;8701;50.150;8.756;2023-06-14T17:43:24;24.90;78.50
17172;DHT22;8701;50.150;8.756;2023-06-14T17:47:26;24.90;78.10
17172;DHT22;8701;50.150;8.756;2023-06-14T17:51:29;24.70;77.70
17172;DHT22;8701;50.150;8.756;2023-06-14T17:55:32;24.70;79.30
17172;DHT22;8701;50.150;8.756;2023-06-14T17:59:39;24.60;79.70
17172;DHT22;8701;50.150;8.756;2023-06-14T18:03:42;24.50;79.70
17172;DHT22;8701;50.150;8.756;2023-06-14T18:07:45;24.40;79.10
17172;DHT22;8701;50.150;8.756;2023-06-14T18:11:48;24.30;79.50
17172;DHT22;8701;50.150;8.756;2023-06-14T18:15:51;24.30;79.90
17172;DHT22;8701;50.150;8.756;2023-06-14T18:19:53;24.20;80.00
17172;DHT22;8701;50.150;8.756;2023-06-14T18:23:55;24.00;80.10
17172;DHT22;8701;50.150;8.756;2023-06-14T18:27:59;24.00;79.50
17172;DHT22;8701;50.150;8.756;2023-06-14T18:32:01;23.90;79.20
17172;DHT22;8701;50.150;8.756;2023-06-14T18:36:03;23.80;80.40
17172;DHT22;8701;50.150;8.756;2023-06-14T18:40:06;23.70;79.90
17172;DHT22;8701;50.150;8.756;2023-06-14T18:44:10;23.70;79.30
17172;DHT22;8701;50.150;8.756;2023-06-14T18:48:12;23.60;80.60
17172;DHT22;8701;50.150;8.756;2023-06-14T18:52:15;23.50;80.40
17172;DHT22;8701;50.150;8.756;2023-06-14T18:56:17;23.40;80.40
17172;DHT22;8701;50.150;8.756;2023-06-14T19:00:21;23.40;79.70
17172;DHT22;8701;50.150;8.756;2023-06-14T19:04:24;23.30;80.90
17172;DHT22;8701;50.150;8.756;2023-06-14T19:08:26;23.20;80.20
17172;DHT22;8701;50.150;8.756;2023-06-14T19:12:28;23.10;80.60
17172;DHT22;8701;50.150;8.756;2023-06-14T19:16:32;23.00;80.60
17172;DHT22;8701;50.150;8.756;2023-06-14T19:20:34;23.00;80.80
17172;DHT22;8701;50.150;8.756;2023-06-14T19:24:37;22.90;80.30
17172;DHT22;8701;50.150;8.756;2023-06-14T19:28:39;22.80;82.50
17172;DHT22;8701;50.150;8.756;2023-06-14T19:32:42;22.80;80.20
17172;DHT22;8701;50.150;8.756;2023-06-14T19:36:45;22.60;79.50
17172;DHT22;8701;50.150;8.756;2023-06-14T19:40:48;22.50;81.00
17172;DHT22;8701;50.150;8.756;2023-06-14T19:44:50;22.40;80.50
17172;DHT22;8701;50.150;8.756;2023-06-14T19:48:54;22.30;80.70
17172;DHT22;8701;50.150;8.756;2023-06-14T19:52:56;22.30;80.90
17172;DHT22;8701;50.150;8.756;2023-06-14T19:56:58;22.20;81.80
17172;DHT22;8701;50.150;8.756;2023-06-14T20:01:01;22.20;81.80
17172;DHT22;8701;50.150;8.756;2023-06-14T20:05:05;22.00;81.00
17172;DHT22;8701;50.150;8.756;2023-06-14T20:09:09;21.90;81.20
17172;DHT22;8701;50.150;8.756;2023-06-14T20:13:14;21.80;82.00
17172;DHT22;8701;50.150;8.756;2023-06-14T20:17:16;21.70;81.90
17172;DHT22;8701;50.150;8.756;2023-06-14T20:21:20;21.70;81.50
17172;DHT22;8701;50.150;8.756;2023-06-14T20:25:22;21.60;82.10
17172;DHT22;8701;50.150;8.756;2023-06-14T20:29:25;21.50;82.30
17172;DHT22;8701;50.150;8.756;2023-06-14T20:33:27;21.40;82.50
17172;DHT22;8701;50.150;8.756;2023-06-14T20:37:31;21.30;83.60
17172;DHT22;8701;50.150;8.756;2023-06-14T20:41:33;21.30;83.30
17172;DHT22;8701;50.150;8.756;2023-06-14T20:45:36;21.20;83.60
17172;DHT22;8701;50.150;8.756;2023-06-14T20:49:39;21.10;83.50
17172;DHT22;8701;50.150;8.756;2023-06-14T20:53:45;21.10;83.60
17172;DHT22;8701;50.150;8.756;2023-06-14T20:57:47;21.10;84.30
17172;DHT22;8701;50.150;8.756;2023-06-14T21:01:49;21.00;84.30
17172;DHT22;8701;50.150;8.756;2023-06-14T21:05:52;21.00;84.60
17172;DHT22;8701;50.150;8.756;2023-06-14T21:09:55;20.80;84.40
17172;DHT22;8701;50.150;8.756;2023-06-14T21:13:57;20.80;85.00
17172;DHT22;8701;50.150;8.756;2023-06-14T21:18:00;20.80;85.40
17172;DHT22;8701;50.150;8.756;2023-06-14T21:22:03;20.70;85.60
17172;DHT22;8701;50.150;8.756;2023-06-14T21:26:07;20.70;85.40
17172;DHT22;8701;50.150;8.756;2023-06-14T21:30:10;20.70;86.10
17172;DHT22;8701;50.150;8.756;2023-06-14T21:34:12;20.60;86.20
17172;DHT22;8701;50.150;8.756;2023-06-14T21:38:14;20.50;86.50
17172;DHT22;8701;50.150;8.756;2023-06-14T21:42:18;20.50;86.40
17172;DHT22;8701;50.150;8.756;2023-06-14T21:46:20;20.40;86.30
17172;DHT22;8701;50.150;8.756;2023-06-14T21:50:22;20.40;86.60
17172;DHT22;8701;50.150;8.756;2023-06-14T21:54:25;20.30;87.60
17172;DHT22;8701;50.150;8.756;2023-06-14T21:58:29;20.20;87.30
17172;DHT22;8701;50.150;8.756;2023-06-14T22:02:32;20.20;87.50
17172;DHT22;8701;50.150;8.756;2023-06-14T22:06:34;20.20;87.40
17172;DHT22;8701;50.150;8.756;2023-06-14T22:10:36;20.20;87.50
17172;DHT22;8701;50.150;8.756;2023-06-14T22:14:40;20.10;87.60
17172;DHT22;8701;50.150;8.756;2023-06-14T22:18:44;20.10;87.90
17172;DHT22;8701;50.150;8.756;2023-06-14T22:22:46;20.00;88.20
17172;DHT22;8701;50.150;8.756;2023-06-14T22:26:50;19.90;88.30
17172;DHT22;8701;50.150;8.756;2023-06-14T22:30:58;19.90;88.50
17172;DHT22;8701;50.150;8.756;2023-06-14T22:35:00;19.90;88.50
17172;DHT22;8701;50.150;8.756;2023-06-14T22:39:04;19.70;88.90
17172;DHT22;8701;50.150;8.756;2023-06-14T22:43:08;19.70;89.20
17172;DHT22;8701;50.150;8.756;2023-06-14T22:47:11;19.60;89.30
17172;DHT22;8701;50.150;8.756;2023-06-14T22:51:21;19.60;89.30
17172;DHT22;8701;50.150;8.756;2023-06-14T22:55:23;19.60;89.80
17172;DHT22;8701;50.150;8.756;2023-06-14T22:59:27;19.50;90.00
17172;DHT22;8701;50.150;8.756;2023-06-14T23:03:31;19.50;89.80
17172;DHT22;8701;50.150;8.756;2023-06-14T23:07:34;19.50;90.10
17172;DHT22;8701;50.150;8.756;2023-06-14T23:11:37;19.40;90.50
17172;DHT22;8701;50.150;8.756;2023-06-14T23:15:44;19.40;90.50
17172;DHT22;8701;50.150;8.756;2023-06-14T23:19:48;19.40;90.80
17172;DHT22;8701;50.150;8.756;2023-06-14T23:23:50;19.30;90.60
17172;DHT22;8701;50.150;8.756;2023-06-14T23:27:54;19.20;90.60
17172;DHT22;8701;50.150;8.756;2023-06-14T23:31:56;19.20;90.60
17172;DHT22;8701;50.150;8.756;2023-06-14T23:36:02;19.20;90.80
17172;DHT22;8701;50.150;8.756;2023-06-14T23:40:06;19.20;90.80
17172;DHT22;8701;50.150;8.756;2023-06-14T23:44:11;19.20;91.00
17172;DHT22;8701;50.150;8.756;2023-06-14T23:48:14;19.20;90.80
17172;DHT22;8701;50.150;8.756;2023-06-14T23:52:18;19.10;91.00
17172;DHT22;8701;50.150;8.756;2023-06-14T23:56:22;19.10;91.10
